Time;durP1;ratioP1;P1;durP2;ratioP2;P2;SDS_P1;SDS_P2;PMS_P1;PMS_P2;Temp;Humidity;BMP_temperature;BMP_pressure;BME280_temperature;BME280_humidity;BME280_pressure;Samples;Min_cycle;Max_cycle;Signal;HPM_P1;HPM_P2
2023/09/18 04:01:01;;;;;;;17.70;9.60;;;;;;;15.82;75.57;99323.38;91081;1286;109344;-78
2023/09/18 04:03:30;;;;;;;15.80;7.70;;;;;;;15.83;75.56;99322.22;102371;1291;108449;-79
2023/09/18 04:05:58;;;;;;;17.30;9.40;;;;;;;15.84;75.62;99321.34;102597;1286;96613;-79
2023/09/18 04:08:26;;;;;;;18.90;9.50;;;;;;;15.85;75.61;99321.46;102492;1290;96744;-78
2023/09/18 04:10:55;;;;;;;15.70;8.20;;;;;;;15.84;75.60;99316.86;102606;1285;110014;-79
2023/09/18 04:13:24;;;;;;;16.90;8.60;;;;;;;15.82;75.61;99316.52;102705;1285;96587;-79
2023/09/18 04:15:56;;;;;;;18.60;9.80;;;;;;;15.82;75.64;99314.99;102416;1291;107521;-79
2023/09/18 04:18:25;;;;;;;18.90;9.00;;;;;;;15.83;75.78;99317.17;102641;1301;96772;-79
2023/09/18 04:20:53;;;;;;;19.10;9.80;;;;;;;15.83;75.70;99314.36;102380;1289;96652;-79
2023/09/18 04:23:26;;;;;;;19.20;9.60;;;;;;;15.83;75.82;99312.56;102723;1285;109936;-79
2023/09/18 04:25:54;;;;;;;19.20;10.30;;;;;;;15.85;75.91;99312.38;102669;1286;96645;-77
2023/09/18 04:28:22;;;;;;;20.00;11.10;;;;;;;15.88;76.04;99316.59;102756;1289;107317;-80
2023/09/18 04:30:51;;;;;;;18.70;10.90;;;;;;;15.92;76.14;99312.98;102971;1289;96657;-80
2023/09/18 04:33:21;;;;;;;20.50;11.80;;;;;;;15.98;76.28;99310.83;102450;1289;96666;-79
2023/09/18 04:35:49;;;;;;;20.60;12.40;;;;;;;16.03;76.28;99310.00;102667;1285;109697;-79
2023/09/18 04:38:19;;;;;;;20.90;12.00;;;;;;;16.09;76.21;99307.70;102463;1291;97592;-80
2023/09/18 04:40:47;;;;;;;19.60;11.20;;;;;;;16.16;76.32;99311.56;105845;1285;107615;-78
2023/09/18 04:43:16;;;;;;;20.90;12.20;;;;;;;16.21;76.24;99313.05;102464;1292;96582;-78
2023/09/18 04:45:44;;;;;;;20.30;11.10;;;;;;;16.26;76.29;99309.05;102704;1288;96728;-79
2023/09/18 04:48:13;;;;;;;20.10;10.60;;;;;;;16.30;76.36;99308.98;102686;1285;109527;-77
2023/09/18 04:50:41;;;;;;;20.60;11.50;;;;;;;16.34;76.33;99308.80;102412;1291;97525;-78
2023/09/18 04:53:11;;;;;;;20.00;11.20;;;;;;;16.39;76.34;99307.84;102525;1285;107618;-79
2023/09/18 04:55:39;;;;;;;19.30;10.40;;;;;;;16.42;76.41;99309.15;102562;1288;96688;-78
2023/09/18 04:58:07;;;;;;;21.80;11.50;;;;;;;16.45;76.41;99305.07;102694;1290;97064;-80
2023/09/18 05:00:36;;;;;;;23.20;13.60;;;;;;;16.52;76.61;99308.41;102438;1291;109946;-79
2023/09/18 05:03:04;;;;;;;23.50;13.00;;;;;;;16.59;76.71;99305.58;102348;1293;96689;-77
2023/09/18 05:05:34;;;;;;;22.10;13.30;;;;;;;16.67;76.92;99308.73;102449;1299;107326;-77
2023/09/18 05:08:07;;;;;;;24.80;13.80;;;;;;;16.77;76.90;99309.52;102508;1285;97605;-80
2023/09/18 05:10:37;;;;;;;24.20;14.20;;;;;;;16.86;76.92;99310.26;102497;1291;96748;-84
2023/09/18 05:13:06;;;;;;;24.00;14.80;;;;;;;16.95;77.04;99304.41;102257;1302;110003;-82
2023/09/18 05:15:37;;;;;;;22.40;14.00;;;;;;;17.04;77.20;99301.61;102692;1288;98043;-80
2023/09/18 05:18:05;;;;;;;26.20;14.30;;;;;;;17.12;77.24;99299.22;102503;1288;107289;-77
2023/09/18 05:20:34;;;;;;;22.90;14.50;;;;;;;17.20;77.25;99296.66;102275;1291;97989;-78
2023/09/18 05:23:03;;;;;;;24.10;13.70;;;;;;;17.29;77.33;99296.52;102766;1288;96783;-80
2023/09/18 05:25:32;;;;;;;22.30;13.30;;;;;;;17.35;77.34;99292.46;102804;1291;109397;-79
2023/09/18 05:28:01;;;;;;;22.80;13.40;;;;;;;17.42;77.34;99293.27;105796;1285;95613;-79
2023/09/18 05:30:33;;;;;;;24.50;13.50;;;;;;;17.49;77.36;99291.17;105789;1285;107386;-79
2023/09/18 05:33:04;;;;;;;20.80;12.50;;;;;;;17.56;77.42;99290.11;105777;1285;94467;-79
2023/09/18 05:35:35;;;;;;;21.80;13.10;;;;;;;17.64;77.29;99285.26;105751;1285;94597;-79
2023/09/18 05:38:03;;;;;;;21.70;12.60;;;;;;;17.70;77.37;99287.88;105582;1285;109936;-78
2023/09/18 05:40:32;;;;;;;22.20;12.80;;;;;;;17.76;77.50;99283.52;105897;1284;95571;-78
2023/09/18 05:43:00;;;;;;;24.40;13.30;;;;;;;17.83;77.46;99282.40;105835;1284;108511;-79
2023/09/18 05:45:29;;;;;;;24.20;13.20;;;;;;;17.90;77.59;99279.27;105161;1285;96685;-80
2023/09/18 05:48:03;;;;;;;21.40;12.30;;;;;;;17.96;77.52;99278.79;102516;1290;96572;-77
2023/09/18 05:50:35;;;;;;;21.00;12.30;;;;;;;18.03;77.61;99279.77;102469;1291;109998;-77
2023/09/18 05:53:04;;;;;;;21.20;11.50;;;;;;;18.07;77.65;99275.92;102711;1289;97478;-76
2023/09/18 05:55:33;;;;;;;23.40;13.10;;;;;;;18.13;77.61;99276.45;103115;1289;107307;-78
2023/09/18 05:58:04;;;;;;;24.10;13.60;;;;;;;18.16;77.67;99274.70;103774;1285;96674;-77
2023/09/18 06:00:32;;;;;;;23.10;12.80;;;;;;;18.19;77.73;99269.06;102853;1285;96656;-80
2023/09/18 06:03:01;;;;;;;21.90;12.50;;;;;;;18.20;77.44;99267.10;102390;1295;110582;-82
2023/09/18 06:05:31;;;;;;;23.60;13.30;;;;;;;18.23;77.67;99268.11;102882;1290;97583;-79
2023/09/18 06:08:00;;;;;;;23.70;12.30;;;;;;;18.25;77.76;99264.42;102819;1291;109111;-77
2023/09/18 06:10:28;;;;;;;22.50;13.00;;;;;;;18.29;77.76;99263.52;102555;1291;96746;-78
2023/09/18 06:12:56;;;;;;;22.60;12.50;;;;;;;18.34;77.81;99261.04;102722;1291;97354;-77
2023/09/18 06:15:24;;;;;;;21.80;12.80;;;;;;;18.39;77.88;99259.25;102430;1291;110001;-77
2023/09/18 06:17:51;;;;;;;25.10;13.40;;;;;;;18.46;78.07;99259.59;102463;1291;96641;-78
2023/09/18 06:20:19;;;;;;;22.50;12.30;;;;;;;18.55;78.11;99260.02;102615;1299;108595;-78
2023/09/18 06:22:47;;;;;;;23.00;12.90;;;;;;;18.61;77.94;99258.12;102903;1290;96658;-76
2023/09/18 06:25:15;;;;;;;21.50;12.90;;;;;;;18.70;78.28;99252.72;102828;1285;96745;-77
2023/09/18 06:27:43;;;;;;;21.20;12.50;;;;;;;18.77;78.18;99248.91;102741;1291;109767;-80
2023/09/18 06:30:11;;;;;;;20.00;12.20;;;;;;;18.83;78.19;99248.45;103186;1294;96574;-80
2023/09/18 06:32:39;;;;;;;20.10;11.10;;;;;;;18.89;78.14;99252.48;102668;1290;107988;-81
2023/09/18 06:35:08;;;;;;;22.00;11.40;;;;;;;18.92;78.24;99256.18;102596;1285;96900;-80
2023/09/18 06:37:36;;;;;;;21.80;12.80;;;;;;;18.94;78.17;99255.84;102729;1289;96602;-78
2023/09/18 06:40:05;;;;;;;20.30;11.40;;;;;;;18.97;78.13;99257.13;102702;1285;109673;-79
2023/09/18 06:42:33;;;;;;;21.10;12.30;;;;;;;19.02;78.41;99256.95;102525;1285;96802;-79
2023/09/18 06:45:01;;;;;;;22.10;12.40;;;;;;;19.10;78.42;99256.28;102453;1292;107699;-76
2023/09/18 06:47:29;;;;;;;23.00;12.20;;;;;;;19.16;78.41;99255.08;102709;1291;96699;-77
2023/09/18 06:49:58;;;;;;;20.30;11.00;;;;;;;19.21;78.15;99251.73;102577;1285;98021;-78
2023/09/18 06:52:27;;;;;;;20.00;11.30;;;;;;;19.26;78.32;99252.44;102636;1289;109630;-79
2023/09/18 06:54:57;;;;;;;20.00;11.40;;;;;;;19.32;78.25;99253.09;102681;1286;96619;-78
2023/09/18 06:57:25;;;;;;;24.00;13.20;;;;;;;19.39;78.24;99249.52;102461;1292;109721;-79
2023/09/18 06:59:53;;;;;;;21.40;11.10;;;;;;;19.44;78.23;99248.91;102645;1291;96661;-78
2023/09/18 07:02:21;;;;;;;23.90;12.30;;;;;;;19.52;78.27;99247.25;102458;1291;96859;-77
2023/09/18 07:04:50;;;;;;;20.20;11.70;;;;;;;19.59;78.29;99246.98;102576;1285;110053;-78
2023/09/18 07:07:24;;;;;;;21.90;11.50;;;;;;;19.65;78.25;99246.48;102670;1291;143943;-76
2023/09/18 07:09:52;;;;;;;23.70;11.50;;;;;;;19.73;78.38;99247.45;102712;1285;108311;-79
2023/09/18 07:12:32;;;;;;;20.50;11.70;;;;;;;19.82;78.32;99247.41;102497;1291;96708;-78
2023/09/18 07:15:03;;;;;;;18.90;11.00;;;;;;;19.88;78.32;99248.41;102729;1291;97894;-79
2023/09/18 07:17:33;;;;;;;21.00;11.00;;;;;;;19.93;78.31;99249.48;102795;1290;110061;-78
2023/09/18 07:20:09;;;;;;;20.20;11.10;;;;;;;20.01;78.45;99249.11;102754;1286;97981;-77
2023/09/18 07:22:37;;;;;;;20.20;10.50;;;;;;;20.11;78.36;99248.84;102684;1297;107608;-77
2023/09/18 07:25:06;;;;;;;22.40;12.20;;;;;;;20.19;78.43;99247.05;102502;1291;96693;-77
2023/09/18 07:27:36;;;;;;;23.10;11.20;;;;;;;20.26;78.31;99245.66;102770;1290;96801;-77
2023/09/18 07:30:05;;;;;;;19.90;10.80;;;;;;;20.34;78.35;99246.44;102852;1286;110059;-76
2023/09/18 07:32:33;;;;;;;21.00;10.00;;;;;;;20.41;78.37;99248.20;102867;1291;96650;-76
2023/09/18 07:35:09;;;;;;;18.40;9.90;;;;;;;20.45;78.19;99246.44;102597;1291;106335;-76
2023/09/18 07:37:37;;;;;;;19.90;9.90;;;;;;;20.49;78.09;99242.45;102757;1291;96697;-77
2023/09/18 07:40:08;;;;;;;20.70;10.20;;;;;;;20.55;78.27;99245.18;102616;1285;96673;-75
2023/09/18 07:42:36;;;;;;;19.50;10.80;;;;;;;20.62;78.20;99242.05;102782;1291;110098;-75
2023/09/18 07:45:05;;;;;;;18.70;10.00;;;;;;;20.68;78.18;99241.80;102591;1292;96742;-77
2023/09/18 07:47:32;;;;;;;18.60;9.70;;;;;;;20.74;78.12;99241.29;102828;1289;107387;-77
2023/09/18 07:50:01;;;;;;;19.40;9.60;;;;;;;20.80;78.04;99240.85;102851;1290;96655;-77
2023/09/18 07:52:30;;;;;;;19.00;9.60;;;;;;;20.85;78.08;99242.42;102680;1290;97161;-77
2023/09/18 07:54:59;;;;;;;19.60;9.60;;;;;;;20.92;78.12;99239.50;102647;1288;109986;-79
2023/09/18 07:57:31;;;;;;;19.50;10.10;;;;;;;20.99;78.08;99236.52;102669;1291;96741;-80
2023/09/18 08:00:07;;;;;;;18.60;10.00;;;;;;;21.06;78.04;99231.96;102659;1291;107606;-80
2023/09/18 08:02:34;;;;;;;25.30;11.30;;;;;;;21.14;78.06;99233.59;102548;1290;97161;-80
2023/09/18 08:05:05;;;;;;;18.60;9.50;;;;;;;21.20;77.89;99232.71;102517;1286;96606;-78
2023/09/18 08:07:32;;;;;;;25.00;11.10;;;;;;;21.24;77.88;99226.71;102340;1291;110076;-78
2023/09/18 08:10:08;;;;;;;20.80;10.90;;;;;;;21.29;77.85;99228.27;102408;1294;96645;-80
2023/09/18 08:12:36;;;;;;;23.00;9.20;;;;;;;21.36;77.93;99225.49;102552;1291;107657;-79
2023/09/18 08:15:06;;;;;;;19.30;9.90;;;;;;;21.40;78.01;99224.83;102547;1291;97657;-77
2023/09/18 08:17:34;;;;;;;20.20;9.90;;;;;;;21.48;77.77;99228.23;102605;1291;96660;-77
2023/09/18 08:20:10;;;;;;;20.50;10.10;;;;;;;21.52;77.71;99230.27;102961;1291;110492;-77
2023/09/18 08:22:38;;;;;;;22.10;10.30;;;;;;;21.56;77.58;99232.35;102603;1286;97290;-77
2023/09/18 08:25:10;;;;;;;18.30;9.70;;;;;;;21.61;77.34;99231.13;103026;1290;107241;-77
2023/09/18 08:27:41;;;;;;;17.40;8.50;;;;;;;21.63;77.54;99232.66;102812;1286;96576;-79
2023/09/18 08:30:12;;;;;;;29.70;11.50;;;;;;;21.64;77.22;99231.44;102658;1291;96596;-79
2023/09/18 08:32:42;;;;;;;17.70;9.00;;;;;;;21.68;77.29;99230.63;102597;1292;110129;-78
2023/09/18 08:35:10;;;;;;;17.90;8.30;;;;;;;21.74;77.27;99229.95;102782;1291;96737;-82
2023/09/18 08:37:41;;;;;;;16.00;8.60;;;;;;;21.79;77.15;99229.42;103098;1289;107831;-80
2023/09/18 08:40:11;;;;;;;16.20;9.00;;;;;;;21.86;77.11;99228.55;103162;1285;96970;-79
2023/09/18 08:42:44;;;;;;;16.20;8.50;;;;;;;21.92;76.85;99230.76;102688;1288;96672;-78
2023/09/18 08:45:27;;;;;;;16.40;9.10;;;;;;;21.97;76.95;99228.15;102571;1299;109676;-79
2023/09/18 08:47:56;;;;;;;24.80;9.70;;;;;;;22.00;76.80;99231.91;102699;1291;96588;-78
2023/09/18 08:50:25;;;;;;;19.80;9.70;;;;;;;22.03;76.72;99236.11;105062;1289;108491;-77
2023/09/18 08:52:55;;;;;;;22.00;9.40;;;;;;;22.08;76.67;99232.98;102613;1286;96741;-78
2023/09/18 08:55:24;;;;;;;29.10;10.40;;;;;;;22.13;76.61;99237.15;103758;1285;98125;-82
2023/09/18 08:57:54;;;;;;;19.00;8.10;;;;;;;22.16;76.28;99233.30;102719;1291;109621;-79
2023/09/18 09:00:22;;;;;;;31.70;11.30;;;;;;;22.17;76.27;99232.28;102755;1285;96694;-79
2023/09/18 09:02:52;;;;;;;30.90;11.10;;;;;;;22.19;75.97;99229.97;102671;1292;107887;-80
2023/09/18 09:05:23;;;;;;;25.40;10.40;;;;;;;22.25;76.31;99229.56;102595;1290;97592;-80
2023/09/18 09:07:52;;;;;;;39.40;13.70;;;;;;;22.29;76.11;99230.16;102684;1289;96696;-80
2023/09/18 09:10:20;;;;;;;48.50;14.20;;;;;;;22.31;76.05;99230.23;102630;1288;109775;-80
2023/09/18 09:13:02;;;;;;;20.10;8.50;;;;;;;22.36;76.14;99231.13;103689;1289;96709;-81
2023/09/18 09:15:47;;;;;;;16.90;8.00;;;;;;;22.40;76.09;99226.68;103974;1285;106973;-80
2023/09/18 09:18:15;;;;;;;16.50;7.90;;;;;;;22.46;76.01;99222.90;102487;1298;97662;-81
2023/09/18 09:20:58;;;;;;;19.60;9.10;;;;;;;22.50;75.59;99226.23;102648;1287;96682;-80
2023/09/18 09:23:28;;;;;;;35.80;11.90;;;;;;;22.54;75.94;99224.90;102626;1292;109936;-80
2023/09/18 09:26:13;;;;;;;19.20;8.60;;;;;;;22.57;75.62;99223.45;102983;1290;96663;-79
2023/09/18 09:28:43;;;;;;;21.50;9.40;;;;;;;22.63;75.26;99221.31;102686;1301;107345;-78
2023/09/18 09:31:11;;;;;;;21.70;8.90;;;;;;;22.67;75.48;99220.83;102729;1286;97624;-78
2023/09/18 09:33:53;;;;;;;19.10;9.10;;;;;;;22.67;75.21;99219.10;102810;1291;96614;-78
2023/09/18 09:36:22;;;;;;;21.20;8.50;;;;;;;22.70;75.28;99214.30;102812;1288;110345;-78
2023/09/18 09:39:00;;;;;;;19.20;9.10;;;;;;;22.75;75.07;99214.98;102911;1288;97589;-80
2023/09/18 09:41:30;;;;;;;17.80;8.80;;;;;;;22.78;74.99;99213.56;102481;1292;107633;-79
2023/09/18 09:43:58;;;;;;;17.80;8.40;;;;;;;22.77;74.72;99212.39;102603;1288;96655;-78
2023/09/18 09:46:27;;;;;;;16.10;7.80;;;;;;;22.75;74.91;99208.41;102853;1288;97252;-79
2023/09/18 09:49:04;;;;;;;24.60;9.00;;;;;;;22.74;74.83;99209.98;103444;1288;110571;-79
2023/09/18 09:51:34;;;;;;;16.70;7.80;;;;;;;22.75;74.80;99212.00;102760;1285;96652;-79
2023/09/18 09:54:02;;;;;;;16.50;7.80;;;;;;;22.76;74.72;99211.78;102708;1294;107108;-80
2023/09/18 09:56:45;;;;;;;14.90;8.10;;;;;;;22.76;74.74;99212.09;103085;1288;97251;-80
2023/09/18 09:59:15;;;;;;;13.20;7.60;;;;;;;22.81;74.40;99204.17;103417;1286;96635;-80
2023/09/18 10:01:46;;;;;;;15.50;7.70;;;;;;;22.88;74.18;99203.84;104474;1285;111742;-78
2023/09/18 10:04:17;;;;;;;15.90;8.30;;;;;;;22.93;74.45;99201.20;103082;1288;96683;-78
2023/09/18 10:06:56;;;;;;;13.60;8.10;;;;;;;22.98;74.47;99196.77;102839;1289;108086;-79
2023/09/18 10:09:28;;;;;;;13.40;7.40;;;;;;;23.04;74.08;99198.61;105165;1288;96648;-78
2023/09/18 10:11:59;;;;;;;14.60;7.90;;;;;;;23.07;74.08;99198.66;102897;1289;96741;-80
2023/09/18 10:14:34;;;;;;;17.60;8.60;;;;;;;23.10;73.65;99194.69;102659;1288;110016;-79
2023/09/18 10:17:19;;;;;;;13.70;7.50;;;;;;;23.15;73.41;99193.92;104054;1286;96696;-80
2023/09/18 10:19:53;;;;;;;15.80;7.50;;;;;;;23.18;73.25;99188.19;102530;1290;107780;-79
2023/09/18 10:22:37;;;;;;;14.70;7.80;;;;;;;23.21;73.39;99180.60;102533;1299;98012;-79
2023/09/18 10:25:17;;;;;;;17.10;8.30;;;;;;;23.22;73.26;99173.67;102542;1288;96716;-80
2023/09/18 10:27:54;;;;;;;15.20;7.90;;;;;;;23.22;73.13;99174.57;102617;1290;110044;-79
2023/09/18 10:30:22;;;;;;;15.90;7.90;;;;;;;23.25;72.84;99173.56;103181;1288;96587;-79
2023/09/18 10:32:51;;;;;;;14.20;6.80;;;;;;;23.30;72.79;99169.49;103135;1298;107826;-79
2023/09/18 10:35:20;;;;;;;14.60;7.10;;;;;;;23.33;72.79;99166.80;104074;1288;96668;-79
2023/09/18 10:37:53;;;;;;;14.10;6.80;;;;;;;23.35;72.57;99165.37;102495;1288;96636;-78
2023/09/18 10:40:24;;;;;;;13.40;7.30;;;;;;;23.36;72.72;99164.88;102702;1288;109550;-79
2023/09/18 10:42:57;;;;;;;16.80;7.80;;;;;;;23.36;72.51;99163.04;102580;1298;96639;-79
2023/09/18 10:45:26;;;;;;;23.90;9.80;;;;;;;23.40;72.07;99166.38;102727;1299;108207;-78
2023/09/18 10:47:56;;;;;;;28.40;10.50;;;;;;;23.44;71.94;99168.88;102588;1286;96657;-78
2023/09/18 10:50:29;;;;;;;36.50;10.70;;;;;;;23.49;72.24;99169.52;102576;1288;96788;-78
2023/09/18 10:52:58;;;;;;;28.90;9.40;;;;;;;23.52;72.02;99173.85;102724;1289;110534;-79
2023/09/18 10:55:27;;;;;;;19.60;7.90;;;;;;;23.53;71.78;99169.13;102367;1288;96741;-79
2023/09/18 10:57:58;;;;;;;15.20;7.60;;;;;;;23.55;72.08;99162.98;102715;1289;107745;-80
2023/09/18 11:00:28;;;;;;;15.50;6.90;;;;;;;23.57;71.38;99161.20;103339;1288;96674;-79
2023/09/18 11:03:19;;;;;;;23.00;8.10;;;;;;;23.58;70.86;99160.84;102382;1290;97043;-79
2023/09/18 11:06:08;;;;;;;17.90;7.40;;;;;;;23.61;71.13;99161.29;102956;1286;110047;-79
2023/09/18 11:08:45;;;;;;;23.10;7.40;;;;;;;23.63;71.27;99159.27;102571;1289;97014;-79
2023/09/18 11:11:20;;;;;;;14.30;7.10;;;;;;;23.64;70.53;99158.09;102368;1301;107759;-80
2023/09/18 11:13:56;;;;;;;22.60;8.90;;;;;;;23.64;71.06;99160.39;102453;1294;98041;-79
2023/09/18 11:16:27;;;;;;;16.70;7.10;;;;;;;23.66;70.85;99162.23;102698;1286;96588;-79
2023/09/18 11:19:07;;;;;;;17.70;7.50;;;;;;;23.67;70.95;99161.38;102668;1299;109664;-79
2023/09/18 11:21:35;;;;;;;28.00;8.30;;;;;;;23.70;70.55;99160.05;102544;1288;96673;-79
2023/09/18 11:24:11;;;;;;;10.90;5.70;;;;;;;23.71;70.40;99153.80;102541;1290;107377;-79
2023/09/18 11:26:44;;;;;;;17.30;7.10;;;;;;;23.69;70.14;99158.67;102667;1292;96693;-81
2023/09/18 11:29:21;;;;;;;14.10;7.00;;;;;;;23.69;70.23;99151.45;102737;1287;97576;-81
2023/09/18 11:31:55;;;;;;;18.00;6.50;;;;;;;23.71;70.27;99148.04;102982;1287;109772;-79
2023/09/18 11:34:28;;;;;;;17.60;7.30;;;;;;;23.73;70.11;99144.43;102774;1288;97898;-79
2023/09/18 11:36:57;;;;;;;12.40;6.30;;;;;;;23.74;70.12;99145.48;101980;1291;334654;-79
2023/09/18 11:39:39;;;;;;;18.60;7.40;;;;;;;23.74;69.61;99143.56;102413;1300;96791;-79
2023/09/18 11:42:18;;;;;;;15.60;6.40;;;;;;;23.77;69.76;99142.91;102177;1302;96705;-79
2023/09/18 11:44:46;;;;;;;14.40;7.30;;;;;;;23.80;69.42;99138.86;102710;1292;109847;-78
2023/09/18 11:47:23;;;;;;;12.00;6.30;;;;;;;23.82;69.59;99138.07;102530;1291;97608;-79
2023/09/18 11:49:54;;;;;;;9.80;6.00;;;;;;;23.83;69.35;99140.64;102413;1286;107466;-80
2023/09/18 11:52:28;;;;;;;16.20;6.60;;;;;;;23.86;69.26;99142.11;102528;1292;96678;-79
2023/09/18 11:54:59;;;;;;;23.60;8.40;;;;;;;23.88;69.16;99135.27;102478;1291;97064;-80
2023/09/18 11:57:28;;;;;;;12.80;6.30;;;;;;;23.91;69.27;99134.08;102455;1291;110025;-80
2023/09/18 12:00:11;;;;;;;19.20;6.50;;;;;;;23.91;69.05;99134.04;102533;1303;96696;-79
2023/09/18 12:02:42;;;;;;;19.90;7.10;;;;;;;23.91;69.05;99127.27;102198;1295;108391;-80
2023/09/18 12:05:18;;;;;;;20.10;6.80;;;;;;;23.94;68.61;99121.88;102938;1300;96719;-79
2023/09/18 12:07:47;;;;;;;31.10;8.80;;;;;;;23.95;68.45;99116.64;102937;1287;97283;-77
2023/09/18 12:10:20;;;;;;;21.10;7.10;;;;;;;23.95;68.40;99114.48;102584;1292;109519;-78
2023/09/18 12:12:49;;;;;;;24.90;7.90;;;;;;;23.94;68.01;99116.10;102384;1288;97914;-80
2023/09/18 12:15:19;;;;;;;18.80;6.70;;;;;;;23.94;68.25;99120.11;102606;1302;107279;-80
2023/09/18 12:17:48;;;;;;;12.70;6.30;;;;;;;23.93;68.10;99115.43;102857;1293;97246;-79
2023/09/18 12:20:20;;;;;;;11.10;5.80;;;;;;;23.92;68.21;99112.33;102312;1298;96612;-80
2023/09/18 12:22:53;;;;;;;12.50;6.40;;;;;;;23.93;67.91;99111.45;102910;1288;110123;-79
2023/09/18 12:25:23;;;;;;;10.50;6.40;;;;;;;23.94;68.09;99105.23;103044;1291;97277;-80
2023/09/18 12:27:53;;;;;;;13.00;6.60;;;;;;;23.94;67.59;99103.89;102648;1303;107392;-80
2023/09/18 12:30:22;;;;;;;13.50;6.50;;;;;;;23.92;67.70;99099.66;103498;1288;98086;-79
2023/09/18 12:32:52;;;;;;;14.00;6.30;;;;;;;23.91;67.18;99101.99;103113;1292;96705;-80
2023/09/18 12:35:22;;;;;;;12.60;6.30;;;;;;;23.90;67.47;99105.30;102921;1286;109457;-80
2023/09/18 12:37:51;;;;;;;19.20;7.40;;;;;;;23.92;67.54;99097.73;103045;1298;98019;-81
2023/09/18 12:40:25;;;;;;;16.20;6.90;;;;;;;23.92;67.40;99095.65;103048;1287;107559;-79
2023/09/18 12:42:56;;;;;;;16.10;7.30;;;;;;;23.92;67.23;99089.91;102854;1294;97958;-78
2023/09/18 12:45:27;;;;;;;14.30;6.30;;;;;;;23.88;67.01;99087.75;102466;1302;96652;-81
2023/09/18 12:47:57;;;;;;;16.40;6.30;;;;;;;23.86;66.86;99084.48;102461;1291;110531;-80
2023/09/18 12:50:26;;;;;;;11.40;5.90;;;;;;;23.86;66.94;99086.12;102334;1286;1009244;-81
2023/09/18 12:53:09;;;;;;;16.80;5.90;;;;;;;23.87;66.72;99080.39;103429;1291;107752;-81
2023/09/18 12:55:38;;;;;;;;;;;;;;;23.86;66.90;99083.44;105660;1287;94697;-80
2023/09/18 12:58:09;;;;;;;12.60;5.60;;;;;;;23.84;66.41;99078.42;105323;1289;96689;-80
2023/09/18 13:00:45;;;;;;;13.20;6.50;;;;;;;23.85;66.66;99076.03;103403;1286;109500;-80
2023/09/18 13:03:14;;;;;;;11.50;5.60;;;;;;;23.84;66.50;99077.91;103120;1291;96617;-80
2023/09/18 13:05:42;;;;;;;12.80;6.00;;;;;;;23.85;66.60;99074.02;103066;1292;108536;-80
2023/09/18 13:08:12;;;;;;;9.50;5.30;;;;;;;23.85;66.43;99072.08;103118;1301;96595;-79
2023/09/18 13:10:44;;;;;;;11.70;6.00;;;;;;;23.86;66.07;99070.02;102822;1291;96664;-79
2023/09/18 13:13:22;;;;;;;14.30;6.10;;;;;;;23.85;66.14;99065.22;102650;1292;110148;-81
2023/09/18 13:15:50;;;;;;;11.00;6.00;;;;;;;23.85;65.95;99055.10;102970;1286;97474;-79
2023/09/18 13:18:23;;;;;;;9.30;5.40;;;;;;;23.86;66.09;99051.42;102396;1292;107722;-79
2023/09/18 13:20:53;;;;;;;11.10;5.90;;;;;;;23.86;66.07;99055.16;102604;1291;96690;-79
2023/09/18 13:23:29;;;;;;;12.90;5.80;;;;;;;23.88;66.02;99049.53;102991;1288;96715;-81
2023/09/18 13:26:20;;;;;;;10.60;5.90;;;;;;;23.88;65.72;99047.34;102661;1291;109899;-81
2023/09/18 13:28:48;;;;;;;16.30;6.20;;;;;;;23.88;65.57;99039.41;102864;1291;96601;-84
2023/09/18 13:31:18;;;;;;;16.30;6.30;;;;;;;23.87;65.64;99036.36;103130;1291;108088;-82
2023/09/18 13:33:47;;;;;;;21.70;6.70;;;;;;;23.86;65.30;99035.98;102751;1297;96748;-82
2023/09/18 13:36:20;;;;;;;10.50;5.90;;;;;;;23.83;65.48;99038.35;102727;1290;96574;-82
2023/09/18 13:38:48;;;;;;;13.00;6.10;;;;;;;23.80;65.46;99037.70;103127;1285;109458;-82
2023/09/18 13:41:16;;;;;;;14.70;6.30;;;;;;;23.76;64.97;99035.75;103078;1291;96636;-83
2023/09/18 13:43:45;;;;;;;10.10;5.40;;;;;;;23.73;65.23;99038.89;102710;1291;107811;-82
2023/09/18 13:46:13;;;;;;;11.30;5.60;;;;;;;23.71;64.95;99038.23;102927;1291;96768;-82
2023/09/18 13:48:41;;;;;;;15.30;6.50;;;;;;;23.71;64.92;99032.71;103106;1288;97131;-83
2023/09/18 13:51:11;;;;;;;15.20;7.50;;;;;;;23.70;64.59;99027.38;102778;1288;109942;-81
2023/09/18 13:53:41;;;;;;;19.10;7.00;;;;;;;23.69;65.11;99031.64;103102;1287;96757;-85
2023/09/18 13:56:09;;;;;;;11.90;5.60;;;;;;;23.68;64.65;99021.70;102950;1285;107729;-83
2023/09/18 13:58:41;;;;;;;14.40;6.50;;;;;;;23.66;64.75;99023.96;103245;1291;96681;-83
2023/09/18 14:01:09;;;;;;;11.00;5.90;;;;;;;23.63;64.47;99022.30;103209;1285;97066;-83
2023/09/18 14:03:37;;;;;;;11.50;6.00;;;;;;;23.62;64.47;99021.16;103063;1285;110006;-82
2023/09/18 14:06:07;;;;;;;13.40;6.80;;;;;;;23.60;64.05;99022.31;103084;1285;96582;-82
2023/09/18 14:08:40;;;;;;;15.10;6.70;;;;;;;23.59;63.84;99019.35;102955;1291;107449;-82
2023/09/18 14:11:08;;;;;;;20.70;8.20;;;;;;;23.57;64.23;99020.30;102910;1291;96699;-82
2023/09/18 14:13:36;;;;;;;22.50;9.90;;;;;;;23.55;64.54;99020.18;102846;1290;96836;-82
2023/09/18 14:16:05;;;;;;;16.20;7.10;;;;;;;23.54;64.29;99016.71;103159;1285;109907;-82
2023/09/18 14:18:33;;;;;;;11.20;6.50;;;;;;;23.52;64.34;99009.97;103419;1288;96674;-82
2023/09/18 14:21:06;;;;;;;13.80;6.50;;;;;;;23.51;64.02;99008.96;102917;1291;107906;-81
2023/09/18 14:23:34;;;;;;;14.50;6.80;;;;;;;23.50;64.13;99001.11;102919;1291;96376;-81
2023/09/18 14:26:02;;;;;;;16.10;6.70;;;;;;;23.48;63.70;98998.63;102622;1288;96766;-82
2023/09/18 14:28:32;;;;;;;25.90;8.50;;;;;;;23.47;64.08;98998.23;102941;1291;109690;-82
2023/09/18 14:31:03;;;;;;;15.90;6.50;;;;;;;23.45;63.96;98997.77;102934;1285;96583;-82
2023/09/18 14:33:31;;;;;;;30.00;9.80;;;;;;;23.44;63.91;98993.59;103037;1291;107813;-83
2023/09/18 14:36:01;;;;;;;18.70;7.10;;;;;;;23.43;63.69;98999.00;102630;1291;97955;-82
2023/09/18 14:38:32;;;;;;;21.40;8.00;;;;;;;23.39;64.07;98994.27;102989;1288;97237;-83
2023/09/18 14:41:02;;;;;;;36.00;12.10;;;;;;;23.35;63.96;98988.59;102757;1291;109589;-82
2023/09/18 14:43:31;;;;;;;15.60;6.40;;;;;;;23.32;64.01;98984.95;103046;1291;96670;-81
2023/09/18 14:45:59;;;;;;;18.80;8.00;;;;;;;23.31;63.74;98979.71;103189;1288;107731;-82
2023/09/18 14:48:28;;;;;;;14.30;6.50;;;;;;;23.28;63.71;98977.85;102852;1289;97901;-81
2023/09/18 14:50:57;;;;;;;32.60;7.60;;;;;;;23.24;63.67;98977.27;103405;1288;97907;-81
2023/09/18 14:53:26;;;;;;;16.80;7.40;;;;;;;23.23;63.68;98978.02;103064;1291;111284;-82
2023/09/18 14:55:55;;;;;;;15.20;7.10;;;;;;;23.21;63.63;98970.55;103483;1285;96701;-83
2023/09/18 14:58:24;;;;;;;11.50;6.40;;;;;;;23.19;63.54;98971.21;102894;1289;107692;-82
2023/09/18 15:00:53;;;;;;;14.90;7.00;;;;;;;23.15;63.55;98975.47;102954;1285;96648;-82
2023/09/18 15:03:24;;;;;;;14.60;7.30;;;;;;;23.12;63.60;98976.40;102990;1291;96647;-82
2023/09/18 15:05:53;;;;;;;13.20;7.10;;;;;;;23.08;63.52;98973.43;102710;1291;110102;-82
2023/09/18 15:08:21;;;;;;;12.50;6.30;;;;;;;23.04;63.54;98974.49;102965;1288;98009;-82
2023/09/18 15:10:53;;;;;;;15.30;7.30;;;;;;;23.01;63.35;98972.06;102990;1300;108335;-82
2023/09/18 15:13:21;;;;;;;14.60;7.20;;;;;;;22.96;63.70;98970.80;102763;1289;96751;-81
2023/09/18 15:15:49;;;;;;;16.50;7.80;;;;;;;22.92;63.58;98970.09;102919;1291;96677;-82
2023/09/18 15:18:17;;;;;;;17.50;7.90;;;;;;;22.89;63.56;98964.64;102753;1304;110430;-81
2023/09/18 15:20:46;;;;;;;17.20;7.70;;;;;;;22.88;63.50;98969.50;102861;1299;98067;-82
2023/09/18 15:23:14;;;;;;;16.90;7.80;;;;;;;22.85;63.65;98961.13;102614;1298;106966;-81
2023/09/18 15:25:42;;;;;;;19.90;8.20;;;;;;;22.83;63.60;98966.67;102795;1286;96701;-82
2023/09/18 15:28:10;;;;;;;17.00;7.70;;;;;;;22.81;63.57;98963.70;102806;1289;96697;-81